Time;durP1;ratioP1;P1;durP2;ratioP2;P2;SDS_P1;SDS_P2;PMS_P1;PMS_P2;Temp;Humidity;BMP_temperature;BMP_pressure;BME280_temperature;BME280_humidity;BME280_pressure;Samples;Min_cycle;Max_cycle;Signal;HPM_P1;HPM_P2
2023/09/24 00:02:05;;;;;;;5.90;3.53;;;;;;;;;;5046743;28;20421;-57
2023/09/24 00:04:31;;;;;;;8.63;3.50;;;;;;;;;;5047578;28;20393;-57
2023/09/24 00:06:56;;;;;;;6.20;3.67;;;;;;;;;;5045321;28;20405;-58
2023/09/24 00:09:21;;;;;;;6.83;4.13;;;;;;;;;;5046932;28;20410;-57
2023/09/24 00:11:47;;;;;;;8.57;3.73;;;;;;;;;;5047395;28;20746;-58
2023/09/24 00:14:13;;;;;;;5.30;3.30;;;;;;;;;;5045514;28;20896;-58
2023/09/24 00:16:38;;;;;;;7.13;3.80;;;;;;;;;;5045804;28;20416;-57
2023/09/24 00:19:03;;;;;;;7.53;3.20;;;;;;;;;;5046752;28;20523;-58
2023/09/24 00:21:29;;;;;;;6.00;3.37;;;;;;;;;;5046517;28;20429;-58
2023/09/24 00:23:54;;;;;;;6.90;3.50;;;;;;;;;;5045303;28;20394;-57
2023/09/24 00:26:19;;;;;;;5.20;3.50;;;;;;;;;;5046338;28;22921;-58
2023/09/24 00:28:45;;;;;;;6.90;3.40;;;;;;;;;;5046876;28;20500;-57
2023/09/24 00:31:10;;;;;;;5.50;3.40;;;;;;;;;;5044240;28;20483;-58
2023/09/24 00:33:35;;;;;;;6.83;3.50;;;;;;;;;;5047236;28;20405;-57
2023/09/24 00:36:00;;;;;;;6.95;3.55;;;;;;;;;;5046439;28;20916;-58
2023/09/24 00:38:26;;;;;;;4.90;3.40;;;;;;;;;;5046029;28;20435;-58
2023/09/24 00:40:51;;;;;;;7.80;3.60;;;;;;;;;;5046001;28;20745;-57
2023/09/24 00:43:27;;;;;;;5.93;3.67;;;;;;;;;;5046064;28;20481;-58
2023/09/24 00:45:53;;;;;;;6.47;3.30;;;;;;;;;;5046538;28;20433;-57
2023/09/24 00:48:18;;;;;;;6.60;3.67;;;;;;;;;;5043568;28;20398;-58
2023/09/24 00:50:44;;;;;;;5.83;3.57;;;;;;;;;;5046470;28;20640;-57
2023/09/24 00:53:09;;;;;;;6.87;3.77;;;;;;;;;;5046583;28;20417;-58
2023/09/24 00:55:34;;;;;;;6.57;3.57;;;;;;;;;;5045454;28;20892;-58
2023/09/24 00:58:00;;;;;;;5.60;3.40;;;;;;;;;;5045454;28;20434;-58
2023/09/24 01:00:28;;;;;;;7.63;3.38;;;;;;;;;;5044573;28;20405;-57
2023/09/24 01:02:54;;;;;;;6.50;3.40;;;;;;;;;;5046429;28;20477;-58
2023/09/24 01:05:19;;;;;;;6.63;3.28;;;;;;;;;;5043850;28;20802;-57
2023/09/24 01:07:45;;;;;;;6.10;3.30;;;;;;;;;;5046767;28;20495;-58
2023/09/24 01:10:11;;;;;;;7.97;3.70;;;;;;;;;;5046626;28;20421;-58
2023/09/24 01:12:39;;;;;;;6.50;3.45;;;;;;;;;;5044104;28;20386;-58
2023/09/24 01:15:08;;;;;;;7.10;3.80;;;;;;;;;;5045506;28;20888;-58
2023/09/24 01:17:35;;;;;;;7.03;3.45;;;;;;;;;;5046198;28;20405;-58
2023/09/24 01:20:03;;;;;;;7.15;3.88;;;;;;;;;;5045296;28;20479;-59
2023/09/24 01:22:30;;;;;;;5.85;3.30;;;;;;;;;;5044906;28;20432;-58
2023/09/24 01:24:55;;;;;;;6.57;3.30;;;;;;;;;;5046205;28;20544;-58
2023/09/24 01:27:21;;;;;;;6.50;3.30;;;;;;;;;;5046349;28;20500;-58
2023/09/24 01:29:47;;;;;;;6.50;3.45;;;;;;;;;;5043910;28;20447;-58
2023/09/24 01:32:12;;;;;;;7.93;3.80;;;;;;;;;;5045452;28;20402;-58
2023/09/24 01:34:37;;;;;;;7.30;3.60;;;;;;;;;;5046591;28;21042;-58
2023/09/24 01:37:09;;;;;;;6.33;3.83;;;;;;;;;;5046105;28;20480;-58
2023/09/24 01:39:36;;;;;;;6.70;3.97;;;;;;;;;;5048522;28;20401;-58
2023/09/24 01:42:01;;;;;;;7.47;4.00;;;;;;;;;;5049829;28;20992;-58
2023/09/24 01:44:28;;;;;;;6.87;3.63;;;;;;;;;;5048453;28;20420;-58
2023/09/24 01:46:53;;;;;;;8.10;3.97;;;;;;;;;;5047233;28;20805;-57
2023/09/24 01:49:19;;;;;;;7.13;3.73;;;;;;;;;;5049689;28;20938;-58
2023/09/24 01:51:45;;;;;;;7.50;3.80;;;;;;;;;;5050257;28;20400;-58
2023/09/24 01:54:10;;;;;;;7.72;4.30;;;;;;;;;;5047638;28;20405;-58
2023/09/24 01:56:36;;;;;;;7.15;3.88;;;;;;;;;;5049361;28;20401;-58
2023/09/24 01:59:01;;;;;;;8.50;4.38;;;;;;;;;;5032474;28;20519;-59
2023/09/24 02:01:28;;;;;;;7.83;3.87;;;;;;;;;;5027036;28;20452;-58
2023/09/24 02:03:59;;;;;;;9.18;4.13;;;;;;;;;;5029805;28;21208;-58
2023/09/24 02:06:24;;;;;;;7.97;3.95;;;;;;;;;;5022025;28;21094;-58
2023/09/24 02:08:49;;;;;;;6.93;3.67;;;;;;;;;;5018670;28;20812;-57
2023/09/24 02:11:14;;;;;;;6.77;3.70;;;;;;;;;;5020857;28;21016;-58
2023/09/24 02:13:40;;;;;;;6.37;4.00;;;;;;;;;;5021297;28;20393;-58
2023/09/24 02:16:07;;;;;;;7.15;4.60;;;;;;;;;;5025757;28;20410;-58
2023/09/24 02:18:33;;;;;;;10.25;4.63;;;;;;;;;;5028844;28;20937;-58
2023/09/24 02:20:59;;;;;;;7.93;4.27;;;;;;;;;;5028503;28;20413;-58
2023/09/24 02:23:24;;;;;;;9.45;4.13;;;;;;;;;;5026144;28;20779;-58
2023/09/24 02:25:50;;;;;;;7.83;3.80;;;;;;;;;;5027631;28;20460;-58
2023/09/24 02:28:17;;;;;;;9.20;4.50;;;;;;;;;;5028086;28;20797;-58
2023/09/24 02:30:43;;;;;;;8.00;4.50;;;;;;;;;;5019893;28;20746;-58
2023/09/24 02:33:09;;;;;;;8.40;4.77;;;;;;;;;;5018016;28;20418;-58
2023/09/24 02:35:35;;;;;;;6.75;3.88;;;;;;;;;;5020178;28;20744;-58
2023/09/24 02:38:00;;;;;;;7.60;4.25;;;;;;;;;;5027080;28;20501;-58
2023/09/24 02:40:27;;;;;;;7.50;4.20;;;;;;;;;;5026594;28;20489;-58
2023/09/24 02:42:54;;;;;;;6.90;4.20;;;;;;;;;;5028134;28;20504;-58
2023/09/24 02:45:19;;;;;;;10.25;4.10;;;;;;;;;;5028091;28;20456;-58
2023/09/24 02:47:46;;;;;;;8.73;4.50;;;;;;;;;;5026078;28;20495;-58
2023/09/24 02:50:14;;;;;;;10.18;4.68;;;;;;;;;;5025957;28;20791;-58
2023/09/24 02:52:41;;;;;;;8.63;4.30;;;;;;;;;;5022155;28;20524;-58
2023/09/24 02:55:07;;;;;;;9.00;4.13;;;;;;;;;;5018016;28;20415;-58
2023/09/24 02:57:32;;;;;;;8.35;4.57;;;;;;;;;;5017823;28;20402;-58
2023/09/24 02:59:58;;;;;;;7.83;4.73;;;;;;;;;;5023850;28;20442;-58
2023/09/24 03:02:23;;;;;;;8.30;5.23;;;;;;;;;;5027283;28;20509;-58
2023/09/24 03:04:50;;;;;;;9.23;5.07;;;;;;;;;;5025762;28;20429;-58
2023/09/24 03:07:15;;;;;;;9.07;5.72;;;;;;;;;;5025963;28;20411;-58
2023/09/24 03:09:41;;;;;;;9.57;5.43;;;;;;;;;;5029588;28;20401;-58
2023/09/24 03:12:07;;;;;;;8.20;5.20;;;;;;;;;;5026564;28;20405;-57
2023/09/24 03:14:32;;;;;;;9.40;4.97;;;;;;;;;;5023198;28;20468;-58
2023/09/24 03:16:57;;;;;;;8.23;5.53;;;;;;;;;;5019014;28;20436;-58
2023/09/24 03:19:22;;;;;;;8.97;4.87;;;;;;;;;;5017772;28;20747;-58
2023/09/24 03:21:48;;;;;;;7.97;5.07;;;;;;;;;;5020953;28;20411;-58
2023/09/24 03:24:14;;;;;;;9.53;5.63;;;;;;;;;;5026038;28;20414;-58
2023/09/24 03:26:40;;;;;;;8.13;5.10;;;;;;;;;;5030336;28;20985;-58
2023/09/24 03:29:05;;;;;;;9.48;5.40;;;;;;;;;;5025168;28;20618;-58
2023/09/24 03:31:32;;;;;;;9.13;5.17;;;;;;;;;;5025059;28;20406;-58
2023/09/24 03:33:58;;;;;;;9.32;5.30;;;;;;;;;;5027710;28;20397;-58
2023/09/24 03:36:23;;;;;;;8.57;4.78;;;;;;;;;;5024296;28;20405;-58
2023/09/24 03:38:48;;;;;;;9.23;5.00;;;;;;;;;;5017651;28;20411;-58
2023/09/24 03:41:13;;;;;;;8.90;5.80;;;;;;;;;;5018968;28;20977;-58
2023/09/24 03:43:39;;;;;;;11.53;6.27;;;;;;;;;;5018990;28;20424;-58
2023/09/24 03:46:06;;;;;;;8.48;5.30;;;;;;;;;;5024274;28;20474;-58
2023/09/24 03:48:31;;;;;;;9.47;5.67;;;;;;;;;;5026521;28;20397;-58
2023/09/24 03:50:56;;;;;;;8.90;5.37;;;;;;;;;;5026242;28;20496;-58
2023/09/24 03:53:22;;;;;;;8.50;5.57;;;;;;;;;;5024519;28;20401;-58
2023/09/24 03:55:48;;;;;;;8.70;5.37;;;;;;;;;;5025134;28;20441;-58
2023/09/24 03:58:13;;;;;;;8.73;5.70;;;;;;;;;;5027721;28;20852;-58
2023/09/24 04:00:38;;;;;;;9.47;5.67;;;;;;;;;;5025305;28;20412;-58
2023/09/24 04:03:04;;;;;;;9.13;5.80;;;;;;;;;;5016556;28;20574;-59
2023/09/24 04:05:30;;;;;;;8.90;5.43;;;;;;;;;;5018920;28;20490;-58
2023/09/24 04:07:55;;;;;;;7.30;5.13;;;;;;;;;;5024851;28;20467;-58
2023/09/24 04:10:21;;;;;;;7.73;5.10;;;;;;;;;;5021784;28;20883;-58
2023/09/24 04:12:47;;;;;;;8.98;5.70;;;;;;;;;;5037228;28;20399;-58
2023/09/24 04:15:12;;;;;;;9.60;5.95;;;;;;;;;;5024693;28;20399;-58
2023/09/24 04:17:39;;;;;;;10.10;5.53;;;;;;;;;;5026494;28;20418;-58
2023/09/24 04:20:06;;;;;;;8.40;5.57;;;;;;;;;;5024919;28;20463;-58
2023/09/24 04:22:32;;;;;;;9.03;5.80;;;;;;;;;;5019710;28;20434;-58
2023/09/24 04:24:57;;;;;;;10.13;5.70;;;;;;;;;;5019060;28;20548;-58
2023/09/24 04:27:22;;;;;;;10.02;6.07;;;;;;;;;;5015740;28;20436;-58
2023/09/24 04:29:48;;;;;;;9.17;6.00;;;;;;;;;;5020717;28;20425;-58
2023/09/24 04:32:13;;;;;;;9.57;5.57;;;;;;;;;;5025542;28;20425;-58
2023/09/24 04:34:39;;;;;;;9.13;5.88;;;;;;;;;;5023616;28;20411;-57
2023/09/24 04:37:04;;;;;;;9.13;5.90;;;;;;;;;;5023129;28;20414;-58
2023/09/24 04:39:29;;;;;;;8.00;5.80;;;;;;;;;;5025291;28;21245;-58
2023/09/24 04:41:54;;;;;;;8.57;5.70;;;;;;;;;;5024752;28;20409;-58
2023/09/24 04:44:20;;;;;;;9.13;5.10;;;;;;;;;;5023055;28;20451;-58
2023/09/24 04:46:45;;;;;;;9.47;5.90;;;;;;;;;;5017216;28;20423;-58
2023/09/24 04:49:10;;;;;;;10.70;6.70;;;;;;;;;;5019676;28;20413;-58
2023/09/24 04:51:36;;;;;;;8.47;6.10;;;;;;;;;;5016908;28;20441;-58
2023/09/24 04:54:01;;;;;;;10.65;6.50;;;;;;;;;;5025072;28;20496;-58
2023/09/24 04:56:27;;;;;;;9.27;5.67;;;;;;;;;;5026437;28;20402;-58
2023/09/24 04:58:52;;;;;;;8.63;5.90;;;;;;;;;;5041051;28;20436;-58
2023/09/24 05:01:18;;;;;;;11.53;6.77;;;;;;;;;;5045968;28;20447;-58
2023/09/24 05:03:43;;;;;;;9.40;6.23;;;;;;;;;;5044780;28;20401;-58
2023/09/24 05:06:08;;;;;;;8.77;5.60;;;;;;;;;;5044267;28;20417;-58
2023/09/24 05:08:34;;;;;;;10.47;6.87;;;;;;;;;;5046592;28;20416;-58
2023/09/24 05:11:00;;;;;;;9.57;6.28;;;;;;;;;;5042972;28;20480;-58
2023/09/24 05:13:25;;;;;;;9.60;6.07;;;;;;;;;;5024210;28;20389;-58
2023/09/24 05:15:53;;;;;;;11.13;8.07;;;;;;;;;;5024309;28;20414;-58
2023/09/24 05:18:19;;;;;;;13.93;8.65;;;;;;;;;;5033568;28;21411;-58
2023/09/24 05:20:44;;;;;;;11.45;7.70;;;;;;;;;;5034411;28;20403;-58
2023/09/24 05:23:09;;;;;;;14.13;8.63;;;;;;;;;;5031119;28;20413;-58
2023/09/24 05:25:35;;;;;;;12.63;7.93;;;;;;;;;;5031373;28;20821;-58
2023/09/24 05:28:01;;;;;;;8.63;6.40;;;;;;;;;;5032579;28;20893;-57
2023/09/24 05:30:26;;;;;;;10.77;7.47;;;;;;;;;;5035481;28;20714;-57
2023/09/24 05:32:51;;;;;;;9.33;6.30;;;;;;;;;;5031538;28;20446;-57
2023/09/24 05:35:16;;;;;;;9.73;6.90;;;;;;;;;;5025487;28;20926;-58
2023/09/24 05:37:42;;;;;;;12.57;7.23;;;;;;;;;;5026307;28;20415;-58
2023/09/24 05:40:08;;;;;;;9.20;6.50;;;;;;;;;;5025881;28;20399;-56
2023/09/24 05:42:34;;;;;;;12.40;7.57;;;;;;;;;;5029966;28;21184;-57
2023/09/24 05:44:59;;;;;;;10.03;7.07;;;;;;;;;;5033981;28;20436;-57
2023/09/24 05:47:26;;;;;;;10.20;7.40;;;;;;;;;;5034107;28;20401;-57
2023/09/24 05:49:52;;;;;;;10.02;6.90;;;;;;;;;;5032960;28;20393;-57
2023/09/24 05:52:17;;;;;;;11.65;7.30;;;;;;;;;;5032064;28;20755;-57
2023/09/24 05:54:42;;;;;;;9.17;5.97;;;;;;;;;;5032403;28;20407;-58
2023/09/24 05:57:08;;;;;;;10.27;7.30;;;;;;;;;;5029172;28;20403;-57
2023/09/24 05:59:33;;;;;;;10.23;6.70;;;;;;;;;;5023491;28;20789;-58
2023/09/24 06:01:58;;;;;;;11.83;6.80;;;;;;;;;;5027337;28;20722;-57
2023/09/24 06:04:24;;;;;;;11.03;6.97;;;;;;;;;;5028174;28;20797;-58
2023/09/24 06:06:49;;;;;;;10.27;7.10;;;;;;;;;;5031984;28;20429;-57
2023/09/24 06:09:16;;;;;;;11.23;6.90;;;;;;;;;;5032782;28;20963;-58
2023/09/24 06:11:43;;;;;;;11.32;6.90;;;;;;;;;;5033654;28;20413;-57
2023/09/24 06:14:08;;;;;;;10.73;7.13;;;;;;;;;;5030762;28;20506;-58
2023/09/24 06:16:36;;;;;;;10.90;6.40;;;;;;;;;;5031958;28;20391;-58
2023/09/24 06:19:02;;;;;;;9.43;6.65;;;;;;;;;;5034057;28;20408;-58
2023/09/24 06:21:27;;;;;;;9.70;7.32;;;;;;;;;;5028302;28;20960;-57
2023/09/24 06:23:53;;;;;;;11.23;6.83;;;;;;;;;;5021900;28;20409;-57
2023/09/24 06:26:20;;;;;;;9.80;7.00;;;;;;;;;;5026172;28;20415;-57
2023/09/24 06:28:45;;;;;;;10.63;6.43;;;;;;;;;;5037685;28;21421;-57
2023/09/24 06:31:10;;;;;;;10.50;6.10;;;;;;;;;;5030218;28;20403;-57
2023/09/24 06:33:36;;;;;;;9.00;5.63;;;;;;;;;;5031935;28;20429;-57
2023/09/24 06:36:03;;;;;;;7.80;4.90;;;;;;;;;;5031597;28;20502;-57
2023/09/24 06:38:28;;;;;;;8.13;5.18;;;;;;;;;;5030151;28;20712;-57
2023/09/24 06:40:58;;;;;;;8.73;4.90;;;;;;;;;;5030668;28;20468;-57
2023/09/24 06:43:25;;;;;;;7.90;4.40;;;;;;;;;;5021824;28;20407;-58
2023/09/24 06:45:50;;;;;;;6.33;4.00;;;;;;;;;;5023983;28;20398;-57
2023/09/24 06:48:16;;;;;;;6.95;4.22;;;;;;;;;;5023642;28;20799;-58
2023/09/24 06:50:42;;;;;;;7.70;4.30;;;;;;;;;;5035863;28;20414;-58
2023/09/24 06:53:07;;;;;;;7.50;3.90;;;;;;;;;;5031943;28;20417;-59
2023/09/24 06:55:33;;;;;;;6.40;3.75;;;;;;;;;;5030560;28;20409;-58
2023/09/24 06:57:58;;;;;;;6.77;4.00;;;;;;;;;;5030550;28;20541;-58
2023/09/24 07:00:23;;;;;;;7.60;4.43;;;;;;;;;;5032138;28;20825;-58
2023/09/24 07:02:48;;;;;;;6.77;3.93;;;;;;;;;;5031250;28;20439;-58
2023/09/24 07:05:14;;;;;;;8.33;3.83;;;;;;;;;;5026218;28;20452;-58
2023/09/24 07:07:39;;;;;;;6.93;5.00;;;;;;;;;;5023689;28;20937;-58
2023/09/24 07:10:05;;;;;;;7.53;4.70;;;;;;;;;;5023864;28;21161;-59
2023/09/24 07:12:31;;;;;;;7.18;4.70;;;;;;;;;;5026337;28;20405;-58
2023/09/24 07:14:56;;;;;;;7.22;4.60;;;;;;;;;;5032344;28;20406;-58
2023/09/24 07:17:22;;;;;;;7.83;4.07;;;;;;;;;;5030757;28;20402;-59
2023/09/24 07:19:47;;;;;;;5.27;3.40;;;;;;;;;;5029988;28;20943;-58
2023/09/24 07:22:13;;;;;;;7.63;4.03;;;;;;;;;;5028836;28;20404;-59
2023/09/24 07:24:38;;;;;;;8.18;4.10;;;;;;;;;;5032178;28;21010;-58
2023/09/24 07:27:05;;;;;;;7.23;3.80;;;;;;;;;;5028018;28;20399;-58
2023/09/24 07:29:30;;;;;;;7.85;3.60;;;;;;;;;;5021829;28;20449;-58
2023/09/24 07:31:56;;;;;;;7.13;3.60;;;;;;;;;;5023156;28;20411;-58
2023/09/24 07:34:21;;;;;;;5.45;3.30;;;;;;;;;;5023916;28;20810;-58
2023/09/24 07:36:46;;;;;;;5.47;3.10;;;;;;;;;;5029538;28;20500;-59
2023/09/24 07:39:12;;;;;;;6.37;3.40;;;;;;;;;;5029649;28;20739;-58
2023/09/24 07:41:37;;;;;;;6.87;3.30;;;;;;;;;;5032456;28;20546;-58
2023/09/24 07:44:02;;;;;;;7.00;3.43;;;;;;;;;;5030118;28;20757;-58
2023/09/24 07:46:28;;;;;;;7.97;3.70;;;;;;;;;;5029732;28;20806;-58
2023/09/24 07:48:53;;;;;;;6.35;3.30;;;;;;;;;;5030135;28;20397;-58
2023/09/24 07:51:18;;;;;;;6.57;3.13;;;;;;;;;;5022625;28;20403;-58
2023/09/24 07:53:45;;;;;;;8.60;3.30;;;;;;;;;;5020657;28;20446;-58
2023/09/24 07:56:10;;;;;;;7.25;3.00;;;;;;;;;;5024391;28;20417;-59
2023/09/24 07:58:36;;;;;;;5.63;3.17;;;;;;;;;;5028670;28;20401;-58
2023/09/24 08:01:02;;;;;;;6.75;3.10;;;;;;;;;;5028475;28;20789;-59
2023/09/24 08:03:28;;;;;;;6.78;3.30;;;;;;;;;;5029786;28;20395;-58
2023/09/24 08:05:53;;;;;;;9.07;3.20;;;;;;;;;;5030313;28;20924;-58
2023/09/24 08:08:18;;;;;;;6.20;3.17;;;;;;;;;;5028478;28;20537;-58
2023/09/24 08:10:44;;;;;;;6.37;3.43;;;;;;;;;;5028841;28;20391;-58
2023/09/24 08:13:09;;;;;;;7.90;3.20;;;;;;;;;;5027201;28;20410;-58
2023/09/24 08:15:34;;;;;;;5.83;2.90;;;;;;;;;;5022548;28;20504;-58
2023/09/24 08:18:00;;;;;;;5.80;3.00;;;;;;;;;;5022219;28;20969;-59
2023/09/24 08:20:26;;;;;;;6.97;3.38;;;;;;;;;;5025703;28;20397;-58
2023/09/24 08:22:51;;;;;;;6.20;3.07;;;;;;;;;;5029794;28;20418;-58
2023/09/24 08:25:17;;;;;;;7.27;3.00;;;;;;;;;;5029042;28;20432;-58
2023/09/24 08:27:42;;;;;;;7.63;3.10;;;;;;;;;;5028881;28;20426;-58
2023/09/24 08:30:07;;;;;;;7.50;3.00;;;;;;;;;;5032403;28;20399;-58
2023/09/24 08:32:33;;;;;;;7.00;3.25;;;;;;;;;;5029585;28;20465;-58
2023/09/24 08:34:58;;;;;;;6.33;3.03;;;;;;;;;;5028215;28;20480;-58
2023/09/24 08:37:23;;;;;;;6.70;3.00;;;;;;;;;;5022124;28;20437;-58
2023/09/24 08:39:48;;;;;;;7.27;2.77;;;;;;;;;;5021995;28;20424;-58
2023/09/24 08:42:15;;;;;;;6.72;2.90;;;;;;;;;;5021505;28;20809;-58
2023/09/24 08:44:40;;;;;;;7.43;2.75;;;;;;;;;;5028282;28;20898;-58
2023/09/24 08:47:06;;;;;;;7.27;2.80;;;;;;;;;;5029721;28;20434;-59
2023/09/24 08:49:32;;;;;;;6.18;2.80;;;;;;;;;;5028686;28;20428;-58
2023/09/24 08:51:57;;;;;;;7.23;2.73;;;;;;;;;;5029191;28;20411;-58
2023/09/24 08:54:22;;;;;;;5.83;2.63;;;;;;;;;;5028689;28;20395;-58
2023/09/24 08:56:48;;;;;;;5.50;2.30;;;;;;;;;;5029732;28;20464;-58
2023/09/24 08:59:13;;;;;;;5.73;2.70;;;;;;;;;;5017707;28;20439;-58
2023/09/24 09:01:38;;;;;;;5.70;2.40;;;;;;;;;;5022153;28;20577;-58
2023/09/24 09:04:04;;;;;;;5.67;2.20;;;;;;;;;;5021259;28;20616;-58
2023/09/24 09:06:29;;;;;;;6.43;2.90;;;;;;;;;;5026806;28;20421;-59
2023/09/24 09:08:55;;;;;;;5.85;2.10;;;;;;;;;;5030439;28;20421;-58
2023/09/24 09:11:21;;;;;;;5.43;2.03;;;;;;;;;;5040338;28;20459;-58
2023/09/24 09:13:48;;;;;;;6.40;2.55;;;;;;;;;;5046031;28;20962;-58
2023/09/24 09:16:14;;;;;;;5.82;2.38;;;;;;;;;;5045965;28;20891;-58
2023/09/24 09:18:39;;;;;;;6.60;2.50;;;;;;;;;;5045007;28;20405;-58
2023/09/24 09:21:05;;;;;;;7.70;2.40;;;;;;;;;;5043420;28;20487;-58
2023/09/24 09:23:32;;;;;;;5.83;2.57;;;;;;;;;;5046188;28;20405;-58
2023/09/24 09:25:57;;;;;;;5.82;2.10;;;;;;;;;;5045547;28;20795;-58
2023/09/24 09:28:24;;;;;;;6.22;1.98;;;;;;;;;;5044320;28;20402;-58
2023/09/24 09:30:57;;;;;;;6.10;2.10;;;;;;;;;;5044508;28;20398;-58
2023/09/24 09:33:25;;;;;;;5.18;1.85;;;;;;;;;;5046139;28;20408;-58
2023/09/24 09:35:51;;;;;;;5.50;1.90;;;;;;;;;;5045048;28;20420;-58
2023/09/24 09:38:17;;;;;;;4.78;1.98;;;;;;;;;;5045041;28;20425;-58
2023/09/24 09:40:42;;;;;;;5.53;1.93;;;;;;;;;;5046469;28;20463;-59
2023/09/24 09:43:07;;;;;;;5.60;2.00;;;;;;;;;;5044916;28;20401;-58
2023/09/24 09:45:32;;;;;;;5.03;2.03;;;;;;;;;;5044792;28;20413;-58
2023/09/24 09:48:00;;;;;;;4.80;1.97;;;;;;;;;;5046368;28;20413;-58
2023/09/24 09:50:26;;;;;;;5.75;1.90;;;;;;;;;;5046347;28;20401;-58
2023/09/24 09:52:53;;;;;;;4.67;1.60;;;;;;;;;;5043560;28;20403;-58
2023/09/24 09:55:18;;;;;;;3.95;1.52;;;;;;;;;;5046221;28;20490;-58
2023/09/24 09:57:43;;;;;;;4.37;1.40;;;;;;;;;;5046169;28;20440;-58
2023/09/24 10:00:10;;;;;;;5.80;2.13;;;;;;;;;;5051937;28;20416;-58
2023/09/24 10:02:36;;;;;;;6.25;1.98;;;;;;;;;;5047778;28;20452;-58
2023/09/24 10:05:01;;;;;;;5.37;1.70;;;;;;;;;;5050161;28;20852;-59
2023/09/24 10:07:26;;;;;;;5.23;1.77;;;;;;;;;;5048338;28;20416;-58
2023/09/24 10:09:52;;;;;;;5.07;1.40;;;;;;;;;;5047858;28;20414;-58
2023/09/24 10:12:34;;;;;;;4.37;1.53;;;;;;;;;;5048157;28;20408;-58
2023/09/24 10:14:59;;;;;;;4.72;1.70;;;;;;;;;;5049303;28;20478;-58
2023/09/24 10:17:25;;;;;;;4.73;1.77;;;;;;;;;;5047652;28;20979;-58
2023/09/24 10:19:51;;;;;;;4.47;1.47;;;;;;;;;;5045861;28;20417;-58
2023/09/24 10:22:24;;;;;;;5.82;1.75;;;;;;;;;;5049149;28;20795;-58
2023/09/24 10:24:49;;;;;;;4.72;1.58;;;;;;;;;;5049185;28;20889;-58
2023/09/24 10:27:15;;;;;;;4.90;1.50;;;;;;;;;;5046804;28;20466;-58
2023/09/24 10:29:51;;;;;;;5.05;1.70;;;;;;;;;;5048526;28;20965;-58
2023/09/24 10:32:18;;;;;;;4.25;1.42;;;;;;;;;;5049379;28;20420;-58
2023/09/24 10:34:50;;;;;;;4.57;1.50;;;;;;;;;;5048619;28;20393;-58
2023/09/24 10:37:16;;;;;;;4.15;1.52;;;;;;;;;;5046320;28;20443;-58
2023/09/24 10:39:57;;;;;;;5.23;1.70;;;;;;;;;;5047373;28;20425;-58
2023/09/24 10:42:23;;;;;;;4.10;1.50;;;;;;;;;;5029777;28;20457;-58
2023/09/24 10:44:48;;;;;;;4.60;1.30;;;;;;;;;;5038149;28;20422;-58
2023/09/24 10:47:23;;;;;;;4.77;1.57;;;;;;;;;;5029215;28;20803;-58
2023/09/24 10:49:49;;;;;;;4.50;1.42;;;;;;;;;;5030887;28;20991;-58
2023/09/24 10:52:14;;;;;;;4.75;1.40;;;;;;;;;;5022127;28;20403;-58
2023/09/24 10:54:40;;;;;;;6.37;1.50;;;;;;;;;;5024638;28;20776;-58
2023/09/24 10:57:05;;;;;;;5.30;1.60;;;;;;;;;;5023316;28;20411;-58
2023/09/24 10:59:31;;;;;;;5.43;1.73;;;;;;;;;;5029217;28;20398;-58
2023/09/24 11:01:56;;;;;;;5.20;1.70;;;;;;;;;;5031856;28;20889;-58
2023/09/24 11:04:27;;;;;;;5.60;1.60;;;;;;;;;;5031511;28;20756;-58
2023/09/24 11:06:52;;;;;;;4.88;1.40;;;;;;;;;;5030985;28;20434;-58
2023/09/24 11:09:18;;;;;;;4.33;1.33;;;;;;;;;;5030626;28;20503;-58
2023/09/24 11:11:44;;;;;;;4.18;1.40;;;;;;;;;;5031774;28;20827;-58
2023/09/24 11:14:13;;;;;;;5.03;1.37;;;;;;;;;;5020497;28;21027;-58
2023/09/24 11:16:38;;;;;;;4.78;1.35;;;;;;;;;;5030279;28;20535;-58
2023/09/24 11:19:03;;;;;;;4.70;1.40;;;;;;;;;;5024219;28;20470;-58
2023/09/24 11:21:30;;;;;;;5.70;1.20;;;;;;;;;;5029263;28;20413;-58
2023/09/24 11:23:55;;;;;;;4.05;1.30;;;;;;;;;;5030232;28;20907;-58
2023/09/24 11:26:33;;;;;;;4.28;1.48;;;;;;;;;;5030164;28;20407;-58
2023/09/24 11:28:58;;;;;;;6.00;1.50;;;;;;;;;;5032499;28;20487;-58
2023/09/24 11:31:24;;;;;;;4.17;1.30;;;;;;;;;;5029054;28;21105;-58
2023/09/24 11:33:55;;;;;;;5.20;1.73;;;;;;;;;;5030670;28;20445;-58
2023/09/24 11:36:21;;;;;;;6.47;1.30;;;;;;;;;;5025623;28;20449;-58
2023/09/24 11:38:46;;;;;;;4.87;1.40;;;;;;;;;;5020928;28;20798;-58
2023/09/24 11:41:13;;;;;;;5.70;1.30;;;;;;;;;;5021470;28;20402;-58
2023/09/24 11:43:38;;;;;;;4.60;1.40;;;;;;;;;;5025390;28;20961;-58
2023/09/24 11:46:15;;;;;;;4.70;1.50;;;;;;;;;;5030766;28;20631;-58
2023/09/24 11:48:40;;;;;;;4.28;1.33;;;;;;;;;;5030814;28;20466;-58
2023/09/24 11:51:05;;;;;;;4.90;1.33;;;;;;;;;;5029084;28;20415;-58
2023/09/24 11:53:30;;;;;;;4.43;1.30;;;;;;;;;;5030101;28;20393;-58
2023/09/24 11:55:56;;;;;;;3.43;1.10;;;;;;;;;;5029379;28;20414;-58
2023/09/24 11:58:25;;;;;;;4.77;1.40;;;;;;;;;;5026110;28;20409;-58
2023/09/24 12:00:51;;;;;;;3.20;1.10;;;;;;;;;;5022036;28;20829;-58
2023/09/24 12:03:16;;;;;;;4.88;1.20;;;;;;;;;;5023154;28;20409;-58
2023/09/24 12:05:41;;;;;;;3.97;1.33;;;;;;;;;;5023094;28;21031;-58
2023/09/24 12:08:09;;;;;;;3.83;1.30;;;;;;;;;;5027026;28;22285;-58
2023/09/24 12:10:36;;;;;;;4.13;1.00;;;;;;;;;;5031426;28;20420;-58
2023/09/24 12:13:04;;;;;;;4.30;1.10;;;;;;;;;;5035129;28;20401;-58
2023/09/24 12:15:30;;;;;;;4.07;1.20;;;;;;;;;;5028790;28;20425;-58
2023/09/24 12:17:56;;;;;;;4.53;1.15;;;;;;;;;;5030066;28;20403;-58
2023/09/24 12:20:21;;;;;;;4.47;1.25;;;;;;;;;;5028560;28;20402;-58
2023/09/24 12:22:47;;;;;;;3.08;1.00;;;;;;;;;;5021484;28;20432;-58
2023/09/24 12:25:12;;;;;;;3.70;1.23;;;;;;;;;;5020052;28;20418;-58
2023/09/24 12:27:38;;;;;;;3.53;1.33;;;;;;;;;;5023211;28;20413;-58
2023/09/24 12:30:04;;;;;;;3.60;1.30;;;;;;;;;;5027775;28;20993;-58
2023/09/24 12:32:30;;;;;;;4.53;1.47;;;;;;;;;;5028090;28;20440;-58
2023/09/24 12:34:56;;;;;;;4.60;1.30;;;;;;;;;;5023967;28;20486;-58
2023/09/24 12:37:21;;;;;;;4.03;1.40;;;;;;;;;;5036227;28;20413;-58
2023/09/24 12:39:46;;;;;;;4.40;1.30;;;;;;;;;;5028472;28;20441;-58
2023/09/24 12:42:11;;;;;;;4.03;1.40;;;;;;;;;;5029389;28;20484;-58
2023/09/24 12:44:37;;;;;;;4.70;1.03;;;;;;;;;;5022777;28;20497;-58
2023/09/24 12:47:02;;;;;;;4.63;1.30;;;;;;;;;;5020353;28;20488;-58
2023/09/24 12:49:27;;;;;;;3.93;1.30;;;;;;;;;;5023305;28;20881;-58
2023/09/24 12:51:52;;;;;;;5.17;1.40;;;;;;;;;;5027639;28;20417;-58
2023/09/24 12:54:18;;;;;;;3.70;1.37;;;;;;;;;;5027605;28;20409;-58
2023/09/24 12:56:43;;;;;;;3.37;1.10;;;;;;;;;;5029524;28;20407;-58
2023/09/24 12:59:08;;;;;;;4.90;1.17;;;;;;;;;;5028754;28;21659;-57
2023/09/24 13:01:34;;;;;;;2.50;1.07;;;;;;;;;;5027773;28;20892;-57
2023/09/24 13:03:59;;;;;;;7.40;2.17;;;;;;;;;;5027528;28;20411;-57
2023/09/24 13:06:26;;;;;;;5.40;1.60;;;;;;;;;;5027831;28;20408;-57
2023/09/24 13:08:51;;;;;;;3.78;1.30;;;;;;;;;;5020545;28;20411;-58
2023/09/24 13:11:18;;;;;;;5.13;1.33;;;;;;;;;;5019202;28;20516;-58
2023/09/24 13:13:43;;;;;;;5.10;1.42;;;;;;;;;;5023064;28;20433;-58
2023/09/24 13:16:08;;;;;;;3.20;1.17;;;;;;;;;;5028786;28;20421;-57
2023/09/24 13:18:33;;;;;;;4.40;1.40;;;;;;;;;;5028488;28;20405;-58
2023/09/24 13:20:59;;;;;;;4.07;1.50;;;;;;;;;;5028568;28;20426;-58
2023/09/24 13:23:24;;;;;;;2.53;1.10;;;;;;;;;;5029110;28;20398;-57
2023/09/24 13:25:49;;;;;;;4.03;1.23;;;;;;;;;;5028033;28;20496;-58
2023/09/24 13:28:14;;;;;;;3.37;1.47;;;;;;;;;;5027604;28;20920;-58
2023/09/24 13:30:40;;;;;;;5.00;1.20;;;;;;;;;;5023868;28;20412;-58
2023/09/24 13:33:05;;;;;;;3.03;1.00;;;;;;;;;;5021166;28;21197;-58
2023/09/24 13:35:30;;;;;;;3.80;1.23;;;;;;;;;;5025681;28;20410;-58
2023/09/24 13:37:56;;;;;;;4.13;1.20;;;;;;;;;;5030640;28;20732;-57
2023/09/24 13:40:21;;;;;;;3.90;1.10;;;;;;;;;;5032681;28;20749;-58
2023/09/24 13:42:47;;;;;;;3.60;1.23;;;;;;;;;;5031718;28;20438;-58
2023/09/24 13:45:13;;;;;;;4.45;1.10;;;;;;;;;;5030473;28;20525;-57
2023/09/24 13:47:39;;;;;;;3.10;1.10;;;;;;;;;;5033223;28;20462;-58
2023/09/24 13:50:04;;;;;;;4.10;1.43;;;;;;;;;;5031897;28;20532;-58
2023/09/24 13:52:30;;;;;;;4.15;1.40;;;;;;;;;;5026197;28;20421;-58
2023/09/24 13:54:55;;;;;;;3.27;1.10;;;;;;;;;;5025678;28;20472;-57
2023/09/24 13:57:20;;;;;;;4.35;1.20;;;;;;;;;;5024861;28;20415;-58
2023/09/24 13:59:48;;;;;;;3.53;1.10;;;;;;;;;;5027818;28;20414;-57
2023/09/24 14:02:15;;;;;;;2.92;1.10;;;;;;;;;;5032711;28;20786;-58
2023/09/24 14:04:41;;;;;;;3.92;1.17;;;;;;;;;;5032878;28;20402;-58
2023/09/24 14:07:06;;;;;;;3.20;1.17;;;;;;;;;;5030865;28;20466;-58
2023/09/24 14:12:21;;;;;;;3.28;1.00;;;;;;;;;;5031481;28;20821;-58
2023/09/24 14:14:47;;;;;;;4.03;1.58;;;;;;;;;;5032340;28;20428;-58
2023/09/24 14:17:12;;;;;;;3.43;1.27;;;;;;;;;;5023901;28;20414;-58
2023/09/24 14:19:38;;;;;;;2.67;1.13;;;;;;;;;;5024230;28;20461;-58
2023/09/24 14:22:03;;;;;;;4.50;1.30;;;;;;;;;;5037539;28;21509;-58
2023/09/24 14:24:28;;;;;;;3.97;1.10;;;;;;;;;;5029241;28;20421;-58
2023/09/24 14:26:54;;;;;;;4.03;1.03;;;;;;;;;;5031078;28;21007;-58
2023/09/24 14:29:19;;;;;;;3.40;1.00;;;;;;;;;;5032200;28;20721;-58
2023/09/24 14:31:44;;;;;;;4.37;1.40;;;;;;;;;;5031501;28;20407;-58
2023/09/24 14:34:10;;;;;;;3.53;1.20;;;;;;;;;;5030405;28;20409;-58
2023/09/24 14:36:35;;;;;;;4.53;1.20;;;;;;;;;;5033390;28;20893;-58